createdAt,value
2022-10-28T06:04:11.978Z,98.50
2022-10-28T06:06:38.932Z,98.00
2022-10-28T06:09:05.793Z,97.70
2022-10-28T06:11:31.152Z,97.60
2022-10-28T06:13:57.904Z,97.30
2022-10-28T06:16:24.740Z,97.10
2022-10-28T06:18:51.518Z,97.40
2022-10-28T06:21:18.312Z,97.50
2022-10-28T06:23:45.705Z,97.50
2022-10-28T06:26:12.761Z,97.40
2022-10-28T06:28:39.564Z,97.30
2022-10-28T06:31:07.875Z,97.50
2022-10-28T06:33:35.095Z,97.80
2022-10-28T06:36:02.253Z,97.80
2022-10-28T06:38:29.483Z,98.20
2022-10-28T06:40:58.010Z,98.50
2022-10-28T06:43:24.825Z,98.70
2022-10-28T06:45:55.601Z,98.50
2022-10-28T06:48:24.529Z,98.20
2022-10-28T06:50:51.414Z,97.90
2022-10-28T06:53:18.382Z,97.70
2022-10-28T06:55:52.751Z,97.50
2022-10-28T06:58:19.618Z,97.50
2022-10-28T07:00:46.681Z,97.20
2022-10-28T07:03:16.809Z,97.20
2022-10-28T07:05:43.639Z,97.60
2022-10-28T07:08:10.545Z,97.70
2022-10-28T07:10:37.602Z,97.80
2022-10-28T07:13:04.484Z,98.00
2022-10-28T07:15:31.562Z,98.30
2022-10-28T07:17:59.473Z,98.40
2022-10-28T07:20:27.963Z,98.50
2022-10-28T07:23:00.071Z,99.00
2022-10-28T07:25:29.125Z,99.20
2022-10-28T07:27:59.672Z,99.00
2022-10-28T07:30:27.677Z,98.90
2022-10-28T07:32:54.973Z,98.40
2022-10-28T07:35:22.199Z,97.90
2022-10-28T07:37:49.079Z,97.90
2022-10-28T07:40:18.513Z,97.70
2022-10-28T07:42:45.320Z,97.80
2022-10-28T07:45:12.388Z,98.40
2022-10-28T07:47:42.247Z,98.50
2022-10-28T07:50:09.673Z,98.00
2022-10-28T10:30:39.991Z,92.70
2022-10-28T10:33:16.486Z,92.90
2022-10-28T10:35:43.293Z,92.50
2022-10-28T10:38:15.684Z,93.10
2022-10-28T10:40:50.973Z,92.70
2022-10-28T10:43:17.758Z,93.20
2022-10-28T10:46:00.429Z,93.40
2022-10-28T10:48:27.729Z,92.80
2022-10-28T10:50:58.046Z,91.80
2022-10-28T10:53:30.683Z,92.10
2022-10-28T10:56:02.933Z,93.10
2022-10-28T10:58:39.986Z,93.10
2022-10-28T11:01:09.569Z,92.30
2022-10-28T11:06:31.098Z,92.10
2022-10-28T11:09:02.500Z,92.30
2022-10-28T11:11:38.227Z,92.30
2022-10-28T11:14:10.917Z,92.90
2022-10-28T11:16:49.717Z,91.20
2022-10-28T11:19:30.992Z,91.90
2022-10-28T11:22:04.907Z,91.50
2022-10-28T11:24:46.427Z,90.90
2022-10-28T11:27:40.355Z,92.30
2022-10-28T11:30:14.571Z,91.10
2022-10-28T11:33:14.751Z,92.70
2022-10-28T11:36:18.919Z,91.30
2022-10-28T11:39:09.581Z,91.00
2022-10-28T11:42:04.056Z,90.60
2022-10-28T11:44:47.104Z,90.90
2022-10-28T11:47:36.452Z,90.50
2022-10-28T11:50:30.154Z,90.90
2022-10-28T11:53:22.440Z,89.70
2022-10-28T11:56:15.731Z,90.40
2022-10-28T11:59:15.481Z,89.60
2022-10-28T12:01:54.447Z,89.60
2022-10-28T12:04:33.407Z,90.30
2022-10-28T12:07:29.824Z,90.20
2022-10-28T12:10:19.509Z,88.70
2022-10-28T12:13:04.228Z,90.00
2022-10-28T12:15:39.596Z,88.30
2022-10-28T12:18:28.543Z,84.60
2022-10-28T12:21:15.471Z,89.00
2022-10-28T12:23:43.803Z,84.30
2022-10-28T12:26:15.605Z,83.70
2022-10-28T12:28:53.844Z,83.70
2022-10-28T12:31:32.281Z,83.70
2022-10-28T22:21:41.166Z,97.10
2022-10-28T22:24:08.314Z,96.70
2022-10-28T22:26:35.162Z,96.70
2022-10-28T22:29:02.149Z,96.70
2022-10-28T22:31:33.656Z,96.50
2022-10-28T22:34:00.847Z,96.50
2022-10-28T22:36:29.603Z,96.40
2022-10-28T22:38:56.523Z,96.10
2022-10-28T22:41:25.974Z,96.70
2022-10-28T22:43:55.280Z,96.20
2022-10-28T22:46:24.345Z,96.60
2022-10-28T22:48:51.206Z,97.30
2022-10-28T22:51:18.330Z,97.20
2022-10-28T22:53:45.641Z,97.40
2022-10-28T22:56:20.290Z,97.70
2022-10-28T22:58:48.211Z,97.50
2022-10-28T23:01:19.528Z,97.70
2022-10-28T23:03:48.448Z,97.10
2022-10-28T23:06:16.485Z,97.40
2022-10-28T23:08:47.375Z,97.30
2022-10-28T23:11:16.033Z,97.00
2022-10-28T23:13:42.935Z,96.70
2022-10-28T23:16:12.381Z,96.70
2022-10-28T23:18:40.078Z,96.40
2022-10-28T23:21:13.088Z,96.60
2022-10-28T23:23:40.935Z,96.30
2022-10-28T23:26:13.212Z,96.10
2022-10-28T23:28:40.852Z,95.40
2022-10-28T23:31:08.346Z,95.30
2022-10-28T23:33:35.380Z,95.60
2022-10-28T23:36:06.093Z,95.30
2022-10-28T23:38:33.223Z,95.70
